Flight Track Log - Related Links

Times and Time Zones

All times are in EDT time to prevent confusion due to time zone crossing. See the N507JT flight status page for this flight to view local times or setup timezone preferences in your user account.

Time Position Orientation Groundspeed Altitude Reporting Facility
EDT Latitude Longitude Course Direction KTS MPH feet Rate Location/Type
Tue 07:26:09 PM 28.4333 -81.3000 24° Northeast 168 193 700  Level Orlando TRACON
Tue 07:26:45 PM 28.4667 -81.2833 53° Northeast 173 199 1,900 1,400 Climbing Orlando TRACON
Tue 07:27:39 PM 28.5000 -81.2333 90° East 225 259 2,800 1,789 Climbing Orlando TRACON
Tue 07:28:39 PM 28.5000 -81.1500 114° Southeast 276 318 5,300 2,586 Climbing Orlando TRACON
Tue 07:30:33 PM 28.4372 -80.9928 107° East 296 341 10,300 2,586 Climbing Miami Center
Tue 07:31:33 PM 28.4128 -80.8997 89° East 296 341 12,800 2,400 Climbing Miami Center
Tue 07:32:33 PM 28.4136 -80.7983 89° East 302 348 15,100 2,250 Climbing Miami Center
Tue 07:33:33 PM 28.4144 -80.6922 91° East 316 364 17,300 1,950 Climbing Miami Center
Tue 07:34:33 PM 28.4128 -80.5978 90° East 328 377 19,000 1,800 Climbing Miami Center
Tue 07:35:33 PM 28.4133 -80.4867 100° East 339 390 20,900 1,750 Climbing Miami Center
Tue 07:36:33 PM 28.3956 -80.3683 120° Southeast 345 397 22,500 1,050 Climbing Miami Center
Tue 07:37:33 PM 28.3436 -80.2653 125° Southeast 362 417 23,000 500 Climbing Miami Center
Tue 07:38:33 PM 28.2794 -80.1619 124° Southeast 390 449 23,500 700 Climbing Miami Center
Tue 07:39:33 PM 28.2189 -80.0611 127° Southeast 423 487 24,400 950 Climbing Miami Center
Tue 07:40:33 PM 28.1464 -79.9508 126° Southeast 435 501 25,400 1,050 Climbing Miami Center
Tue 07:41:33 PM 28.0656 -79.8261 126° Southeast 445 512 26,500 1,150 Climbing Miami Center
Tue 07:42:33 PM 27.9906 -79.7114 126° Southeast 445 512 27,700 1,000 Climbing Miami Center
Tue 07:43:33 PM 27.9175 -79.5967 123° Southeast 445 512 28,500 850 Climbing Miami Center
Tue 07:44:33 PM 27.8569 -79.4919 126° Southeast 445 512 29,400 1,000 Climbing Miami Center
Tue 07:45:33 PM 27.7736 -79.3608 127° Southeast 459 528 30,500 800 Climbing Miami Center
Tue 07:46:33 PM 27.6983 -79.2467 125° Southeast 459 528 31,000 250 Climbing Miami Center
Tue 07:47:33 PM 27.6272 -79.1303 127° Southeast 459 528 31,000  Level Miami Center
Tue 07:48:33 PM 27.5578 -79.0258 125° Southeast 459 528 31,000  Level Miami Center
Tue 07:49:33 PM 27.4864 -78.9122 126° Southeast 459 528 31,000 150 Level Miami Center
Tue 07:50:33 PM 27.4044 -78.7867 129° Southeast 454 522 31,300 700 Climbing Miami Center
Tue 07:51:33 PM 27.3244 -78.6756 125° Southeast 454 522 32,400 1,250 Climbing Miami Center
Tue 07:52:33 PM 27.2547 -78.5622 128° Southeast 454 522 33,800 1,050 Climbing Miami Center
Tue 07:53:33 PM 27.1789 -78.4514 126° Southeast 454 522 34,500 650 Climbing Miami Center
Tue 07:54:33 PM 27.1150 -78.3525 126° Southeast 449 517 35,100 650 Climbing Miami Center
Tue 07:55:33 PM 27.0431 -78.2394 128° Southeast 444 511 35,800 633 Climbing Miami Center
Tue 07:57:33 PM 26.8944 -78.0258 123° Southeast 444 511 37,000 400 Climbing Miami Center
Tue 07:58:33 PM 26.8267 -77.9086 128° Southeast 438 504 37,000  Level Miami Center
Tue 07:59:33 PM 26.7542 -77.8056 125° Southeast 438 504 37,000  Level Miami Center
Tue 08:00:33 PM 26.6817 -77.6889 129° Southeast 446 513 37,000  Level Miami Center
Tue 08:01:33 PM 26.6050 -77.5814 126° Southeast 451 519 37,000  Level Miami Center
Tue 08:02:33 PM 26.5261 -77.4603 127° Southeast 444 511 37,000  Level Miami Center
Tue 08:03:33 PM 26.4514 -77.3483 127° Southeast 438 504 37,000  Level Miami Center
Tue 08:04:33 PM 26.3764 -77.2392 126° Southeast 443 510 37,000  Level Miami Center
Tue 08:05:33 PM 26.3119 -77.1414 126° Southeast 443 510 37,000  Level Miami Center
Tue 08:06:33 PM 26.2389 -77.0300 127° Southeast 443 510 37,000  Level Miami Center
Tue 08:07:33 PM 26.1639 -76.9189 128° Southeast 443 510 37,000  Level Miami Center
Tue 08:08:33 PM 26.0886 -76.8100 127° Southeast 443 510 37,000  Level Miami Center
Tue 08:09:33 PM 26.0133 -76.6969 127° Southeast 443 510 37,000  Level Miami Center
Tue 08:10:33 PM 25.9400 -76.5883 129° Southeast 443 510 37,000  Level Miami Center
Tue 08:11:33 PM 25.8622 -76.4800 127° Southeast 443 510 37,000  Level Miami Center
Tue 08:12:33 PM 25.7867 -76.3672 127° Southeast 443 510 37,000  Level Miami Center
Tue 08:13:33 PM 25.7111 -76.2567 127° Southeast 443 510 37,000  Level Miami Center
Tue 08:14:34 PM 25.6397 -76.1511 127° Southeast 443 510 37,000  Level Miami Center
Tue 08:15:33 PM 25.5658 -76.0408 128° Southeast 443 510 37,000  Level Miami Center
Tue 08:16:33 PM 25.4900 -75.9333 128° Southeast 443 510 37,000  Level Miami Center
Tue 08:17:33 PM 25.4142 -75.8256 127° Southeast 443 510 37,000  Level Miami Center
Tue 08:18:33 PM 25.3400 -75.7158 128° Southeast 443 510 37,000  Level Miami Center
Tue 08:19:33 PM 25.2619 -75.6064 126° Southeast 449 517 37,000  Level Miami Center
Tue 08:20:33 PM 25.1919 -75.5014 130° Southeast 444 511 37,000  Level Miami Center
Tue 08:21:33 PM 25.1094 -75.3922 125° Southeast 444 511 37,000  Level Miami Center
Tue 08:22:33 PM 25.0414 -75.2831 130° Southeast 436 502 37,000  Level Miami Center
Tue 08:23:33 PM 24.9608 -75.1761 130° Southeast 443 510 37,000  Level Miami Center
Tue 08:24:33 PM 24.8694 -75.0561 129° Southeast 443 510 37,000  Level Miami Center
Tue 08:25:33 PM 24.7908 -74.9497 119° Southeast 444 511 37,000  Level Miami Center
Tue 08:26:33 PM 24.7350 -74.8408 133° Southeast 438 504 37,000  Level Miami Center
Tue 08:27:33 PM 24.6439 -74.7347 126° Southeast 443 510 37,000  Level Miami Center
Tue 08:28:33 PM 24.5733 -74.6286 125° Southeast 443 510 37,000  Level Miami Center
Tue 08:29:33 PM 24.5047 -74.5203 131° Southeast 437 503 37,000  Level Miami Center
Tue 08:30:33 PM 24.4214 -74.4147 127° Southeast 443 510 37,000  Level Miami Center
Tue 08:31:33 PM 24.3467 -74.3067 129° Southeast 448 516 37,000  Level Miami Center
Tue 08:32:33 PM 24.2675 -74.2011 127° Southeast 441 507 37,000  Level Miami Center
Tue 08:33:33 PM 24.1944 -74.0933 128° Southeast 441 507 37,000  Level Miami Center
Tue 08:34:33 PM 24.1342 -74.0081 129° Southeast 441 507 37,000  Level Miami Center
Tue 08:35:33 PM 24.0397 -73.8806 123° Southeast 447 514 37,000  Level Miami Center
Tue 08:36:33 PM 23.9858 -73.7908 132° Southeast 445 512 37,000  Level Miami Center
Tue 08:37:33 PM 23.8892 -73.6731 129° Southeast 431 496 37,000  Level Miami Center
Tue 08:38:33 PM 23.8117 -73.5681 127° Southeast 430 495 37,000  Level Miami Center
Tue 08:39:33 PM 23.7361 -73.4589 130° Southeast 442 509 37,000  Level Miami Center
Tue 08:40:33 PM 23.6567 -73.3567 126° Southeast 447 514 37,000  Level Miami Center
Tue 08:41:33 PM 23.5831 -73.2478 132° Southeast 447 514 37,000  Level Miami Center
Tue 08:42:33 PM 23.5033 -73.1503 127° Southeast 441 507 37,000  Level Miami Center
Tue 08:43:33 PM 23.4294 -73.0417 129° Southeast 441 507 37,000  Level Miami Center
Tue 08:44:33 PM 23.3517 -72.9378 128° Southeast 441 507 37,000  Level Miami Center
Tue 08:45:33 PM 23.2781 -72.8358 129° Southeast 441 507 37,000  Level Miami Center
Tue 08:46:33 PM 23.2022 -72.7344 129° Southeast 441 507 37,000  Level Miami Center
Tue 08:47:33 PM 23.1261 -72.6331 128° Southeast 441 507 37,000  Level Miami Center
Tue 08:48:33 PM 23.0503 -72.5294 129° Southeast 441 507 37,000  Level Miami Center
Tue 08:49:33 PM 22.9742 -72.4283 129° Southeast 441 507 37,000  Level Miami Center
Tue 08:50:33 PM 22.8981 -72.3272 128° Southeast 441 507 37,000  Level Miami Center
Tue 08:51:33 PM 22.8261 -72.2261 130° Southeast 441 507 37,000  Level Miami Center
Tue 08:52:33 PM 22.7478 -72.1253 129° Southeast 435 501 37,000  Level Miami Center
Tue 08:53:33 PM 22.6669 -72.0158 131° Southeast 435 501 37,000  Level Miami Center
Tue 08:54:33 PM 22.5908 -71.9197 127° Southeast 435 501 37,000  Level Miami Center
Tue 08:55:33 PM 22.5164 -71.8147 129° Southeast 435 501 37,000  Level Miami Center
Tue 08:56:33 PM 22.4400 -71.7144 128° Southeast 435 501 37,000  Level Miami Center
Tue 08:57:33 PM 22.3633 -71.6097 129° Southeast 440 506 37,000  Level Miami Center
Tue 08:58:33 PM 22.2892 -71.5119 130° Southeast 440 506 37,000  Level Miami Center
Tue 08:59:33 PM 22.2125 -71.4119 128° Southeast 434 499 37,000  Level Miami Center
Tue 09:00:33 PM 22.1356 -71.3075 130° Southeast 440 506 37,000  Level Miami Center
Tue 09:01:33 PM 22.0589 -71.2078 130° Southeast 440 506 37,000  Level Miami Center
Tue 09:02:33 PM 21.9822 -71.1083 129° Southeast 440 506 37,000  Level Miami Center
Tue 09:03:33 PM 21.9053 -71.0064 130° Southeast 440 506 37,000  Level Miami Center
Tue 09:04:33 PM 21.8286 -70.9072 129° Southeast 440 506 37,000  Level Miami Center
Tue 09:05:33 PM 21.7669 -70.8250 129° Southeast 440 506 37,000  Level Miami Center
Tue 09:06:33 PM 21.6767 -70.7064 131° Southeast 440 506 37,000  Level Miami Center
Tue 09:07:33 PM 21.5975 -70.6075 128° Southeast 440 506 37,000  Level Miami Center
Tue 09:08:33 PM 21.5225 -70.5039 129° Southeast 440 506 37,000  Level Miami Center
Tue 09:09:33 PM 21.4453 -70.4031 131° Southeast 440 506 37,000  Level Miami Center
Tue 09:10:33 PM 21.3747 -70.3153 130° Southeast 440 506 37,000  Level Miami Center
Tue 09:11:33 PM 21.2953 -70.2144 129° Southeast 440 506 37,000  Level Miami Center
Tue 09:12:33 PM 21.2181 -70.1139 129° Southeast 440 506 37,000  Level Miami Center
Tue 09:13:33 PM 21.1406 -70.0111 130° Southeast 445 512 37,000  Level Miami Center
Tue 09:14:33 PM 21.0631 -69.9106 130° Southeast 445 512 37,000  Level Miami Center
Tue 09:15:33 PM 20.9856 -69.8103 130° Southeast 438 504 37,000  Level Miami Center
Tue 09:16:33 PM 20.9061 -69.7103 128° Southeast 438 504 37,000  Level Miami Center
Tue 09:17:33 PM 20.8303 -69.6078 130° Southeast 438 504 37,000  Level Miami Center
Tue 09:18:33 PM 20.7506 -69.5058 130° Southeast 443 510 37,000  Level Miami Center
Tue 09:19:33 PM 20.6708 -69.4039 131° Southeast 443 510 37,000  Level Miami Center
Tue 09:20:33 PM 20.5908 -69.3042 129° Southeast 443 510 37,000  Level Miami Center
Tue 09:21:33 PM 20.5108 -69.2003 131° Southeast 448 516 37,000  Level Miami Center
Tue 09:22:33 PM 20.4289 -69.1011 129° Southeast 448 516 37,000  Level Miami Center
Tue 09:23:33 PM 20.3531 -69.0017 130° Southeast 443 510 37,000  Level Miami Center
Tue 09:24:33 PM 20.2753 -68.9022 129° Southeast 443 510 37,000  Level Miami Center
Tue 09:25:33 PM 20.1972 -68.8011 130° Southeast 443 510 37,000  Level Miami Center
Tue 09:26:33 PM 20.1192 -68.7019 130° Southeast 443 510 37,000  Level Miami Center
Tue 09:27:33 PM 20.0411 -68.6031 131° Southeast 443 510 37,000  Level Miami Center
Tue 09:28:33 PM 19.9611 -68.5067 130° Southeast 443 510 37,000  Level Miami Center
Tue 09:29:33 PM 19.8828 -68.4058 131° Southeast 443 510 37,000  Level Miami Center
Tue 09:30:33 PM 19.8050 -68.3114 129° Southeast 443 510 37,000  Level Miami Center
Tue 09:31:33 PM 19.7286 -68.2108 132° Southeast 443 510 37,000 -50 Level Miami Center
Tue 09:32:33 PM 19.6464 -68.1128 137° Southeast 443 510 36,900 -308 Descending Miami Center
Tue 09:32:51 PM 19.6167 -68.0833 131° Southeast 440 506 36,600 -987 Descending San Juan Center
Tue 09:33:52 PM 19.5333 -67.9833 131° Southeast 440 506 35,600 -992 Descending San Juan Center
Tue 09:34:52 PM 19.4500 -67.8833 131° Southeast 440 506 34,600 -1,000 Descending San Juan Center
Tue 09:35:52 PM 19.3667 -67.7833 131° Southeast 450 518 33,600 -1,785 Descending San Juan Center
Tue 09:36:53 PM 19.2833 -67.6833 121° Southeast 460 529 31,000 -2,380 Descending San Juan Center
Tue 09:37:53 PM 19.2167 -67.5667 114° Southeast 460 529 28,800 -2,281 Descending San Juan Center
Tue 09:38:54 PM 19.1667 -67.4500 121° Southeast 450 518 26,400 -2,331 Descending San Juan Center
Tue 09:39:54 PM 19.1000 -67.3333 114° Southeast 450 518 24,100 -2,250 Descending San Juan Center
Tue 09:40:54 PM 19.0500 -67.2167 118° Southeast 430 495 21,900 -2,250 Descending San Juan Center
Tue 09:41:54 PM 18.9833 -67.0833 118° Southeast 410 472 19,600 -2,182 Descending San Juan Center
Tue 09:42:55 PM 18.9333 -66.9833 118° Southeast 400 460 17,500 -2,083 Descending San Juan Center
Tue 09:43:55 PM 18.8833 -66.8833 118° Southeast 370 426 15,400 -2,350 Descending San Juan Center
Tue 09:44:55 PM 18.8333 -66.7833 113° Southeast 360 414 12,800 -2,182 Descending San Juan Center
Tue 09:45:56 PM 18.8000 -66.7000 122° Southeast 350 403 11,000 -1,240 Descending San Juan Center
Tue 09:46:56 PM 18.7500 -66.6167 128° Southeast 310 357 10,300 -1,000 Descending San Juan Center
Tue 09:47:56 PM 18.7000 -66.5500 118° Southeast 280 322 9,000 -1,686 Descending San Juan Center
Tue 09:48:57 PM 18.6667 -66.4833 118° Southeast 280 322 6,900 -2,066 Descending San Juan Center
Tue 09:49:58 PM 18.6333 -66.4167 128° Southeast 260 299 4,800 -1,835 Descending San Juan Center
Tue 09:50:58 PM 18.5833 -66.3500 118° Southeast 250 288 3,200 -900 Descending San Juan Center
Tue 09:51:58 PM 18.5500 -66.2833 125° Southeast 230 265 3,000 -250 Descending San Juan Center
Tue 09:52:58 PM 18.5167 -66.2333 125° Southeast 230 265 2,700 -496 Descending San Juan Center
Tue 09:53:59 PM 18.4833 -66.1833 125° Southeast 220 253 2,000 -347 Descending San Juan Center
Tue 09:54:59 PM 18.4500 -66.1333 109° East 190 219 2,000 -149 Level San Juan Center
Tue 09:56:00 PM 18.4333 -66.0833 90° East 150 173 1,700 -545 Descending San Juan Center
Tue 09:57:00 PM 18.4333 -66.0500 90° East 140 161 900 -800 Descending San Juan Center

Login

Don't have an account? Register now (free) for customized features, flight alerts, and more!